Time;durP1;ratioP1;P1;durP2;ratioP2;P2;SDS_P1;SDS_P2;PMS_P1;PMS_P2;Temp;Humidity;BMP_temperature;BMP_pressure;BME280_temperature;BME280_humidity;BME280_pressure;Samples;Min_cycle;Max_cycle;Signal;HPM_P1;HPM_P2
2021/07/19 00:01:56;;;;;;;10.52;6.63;;;;;;;24.90;62.07;94159.69;5421047;23;20396;-71
2021/07/19 00:04:21;;;;;;;8.65;6.35;;;;;;;25.09;62.28;94189.47;4999692;28;20117;-73
2021/07/19 00:06:47;;;;;;;10.68;7.45;;;;;;;24.89;62.45;94169.13;4989424;28;20068;-71
2021/07/19 00:09:13;;;;;;;9.60;7.00;;;;;;;24.99;62.81;94194.72;4992233;28;20428;-71
2021/07/19 00:11:39;;;;;;;9.05;6.50;;;;;;;24.66;62.79;94142.25;5010055;28;20619;-71
2021/07/19 00:14:04;;;;;;;8.65;7.07;;;;;;;24.82;63.02;94167.09;4976017;28;20026;-71
2021/07/19 00:16:30;;;;;;;11.07;6.95;;;;;;;24.94;62.82;94181.91;4991009;28;20123;-71
2021/07/19 00:18:55;;;;;;;10.77;7.40;;;;;;;24.61;63.00;94137.69;5009684;28;20037;-71
2021/07/19 00:21:21;;;;;;;8.45;7.03;;;;;;;24.86;62.75;94189.31;5009258;28;20571;-71
2021/07/19 00:23:46;;;;;;;11.20;7.65;;;;;;;24.83;63.29;94187.69;5009209;28;20108;-71
2021/07/19 00:26:12;;;;;;;9.48;6.82;;;;;;;24.87;62.82;94188.06;5009573;28;20412;-71
2021/07/19 00:28:37;;;;;;;10.88;7.30;;;;;;;24.77;62.78;94171.97;5009407;28;20025;-71
2021/07/19 00:31:03;;;;;;;8.75;6.75;;;;;;;24.87;62.63;94195.50;5009456;28;20037;-71
2021/07/19 00:33:28;;;;;;;8.60;7.32;;;;;;;24.83;63.25;94193.13;5024360;28;20026;-71
2021/07/19 00:35:54;;;;;;;10.38;7.55;;;;;;;24.75;63.42;94194.34;5006693;28;20018;-71
2021/07/19 00:38:19;;;;;;;10.30;7.45;;;;;;;24.67;63.57;94201.06;4989086;28;20025;-71
2021/07/19 00:40:45;;;;;;;8.82;7.38;;;;;;;24.50;63.83;94181.66;4989647;28;20029;-71
2021/07/19 00:43:10;;;;;;;10.88;7.30;;;;;;;24.53;64.17;94196.97;4989694;28;20052;-71
2021/07/19 00:45:36;;;;;;;7.90;7.07;;;;;;;24.58;63.85;94204.28;4989596;28;20617;-71
2021/07/19 00:48:02;;;;;;;8.60;7.40;;;;;;;24.54;64.08;94201.16;4989395;28;20737;-70
2021/07/19 00:50:29;;;;;;;8.98;6.97;;;;;;;24.28;64.19;94156.91;4989505;28;20084;-71
2021/07/19 00:52:58;;;;;;;11.18;8.07;;;;;;;24.46;64.19;94189.44;4989588;28;20495;-71
2021/07/19 00:55:51;;;;;;;11.02;7.20;;;;;;;24.46;64.69;94197.66;4989118;28;20030;-70
2021/07/19 00:58:17;;;;;;;9.70;7.40;;;;;;;24.45;64.76;94190.72;4969970;28;20053;-71
2021/07/19 01:00:50;;;;;;;11.88;7.55;;;;;;;24.42;64.25;94180.88;4991412;28;20076;-71
2021/07/19 01:03:16;;;;;;;9.38;7.55;;;;;;;24.42;64.08;94191.78;5008573;28;20096;-71
2021/07/19 01:05:42;;;;;;;9.05;7.05;;;;;;;24.32;64.78;94177.16;5006923;28;20029;-71
2021/07/19 01:08:08;;;;;;;9.63;7.13;;;;;;;24.31;64.46;94192.03;5007530;28;20036;-71
2021/07/19 01:10:33;;;;;;;13.68;7.47;;;;;;;24.31;64.30;94194.78;5023448;28;20723;-71
2021/07/19 01:12:59;;;;;;;9.55;7.07;;;;;;;24.15;64.67;94189.75;5024025;28;20421;-71
2021/07/19 01:15:28;;;;;;;10.90;7.38;;;;;;;24.22;64.49;94199.97;5008364;28;20026;-71
2021/07/19 01:17:53;;;;;;;8.52;7.40;;;;;;;23.94;64.26;94159.75;5008232;28;20029;-71
2021/07/19 01:20:33;;;;;;;12.43;8.02;;;;;;;24.15;64.07;94190.47;5008577;28;20026;-71
2021/07/19 01:23:29;;;;;;;9.88;7.55;;;;;;;24.16;64.54;94202.84;5006734;28;20030;-71
2021/07/19 01:26:00;;;;;;;10.65;7.40;;;;;;;24.13;64.49;94201.19;5023914;28;20046;-71
2021/07/19 01:28:41;;;;;;;9.93;7.43;;;;;;;24.19;64.32;94201.06;5008912;28;20096;-71
2021/07/19 01:31:12;;;;;;;11.85;7.80;;;;;;;24.21;63.61;94204.69;5023633;28;20029;-70
2021/07/19 01:33:39;;;;;;;11.38;7.32;;;;;;;24.26;63.79;94205.81;5006840;28;20401;-71
2021/07/19 01:36:04;;;;;;;12.05;7.70;;;;;;;24.17;63.32;94187.94;4990260;28;20041;-71
2021/07/19 01:38:30;;;;;;;12.35;7.47;;;;;;;24.23;63.50;94206.88;5008077;28;20411;-71
2021/07/19 01:40:55;;;;;;;10.77;7.70;;;;;;;24.22;63.82;94211.63;4990814;28;20021;-71
2021/07/19 01:43:21;;;;;;;10.32;7.50;;;;;;;24.11;63.74;94195.53;5006788;28;20455;-71
2021/07/19 01:45:47;;;;;;;8.15;7.32;;;;;;;24.03;64.09;94200.19;5023336;28;20026;-71
2021/07/19 01:48:12;;;;;;;11.93;7.97;;;;;;;23.39;63.90;94111.25;5006520;28;20056;-71
2021/07/19 01:50:38;;;;;;;12.10;7.40;;;;;;;24.08;64.19;94212.97;5022816;28;20022;-71
2021/07/19 01:53:03;;;;;;;8.77;7.75;;;;;;;24.01;64.11;94208.16;5007616;28;20033;-71
2021/07/19 01:55:29;;;;;;;10.13;7.78;;;;;;;24.03;64.19;94211.09;5007370;28;20038;-71
2021/07/19 01:57:54;;;;;;;9.30;7.13;;;;;;;23.95;64.29;94207.56;5007915;28;20088;-71
2021/07/19 02:00:20;;;;;;;11.32;7.72;;;;;;;23.87;64.14;94195.88;5007656;28;20488;-71
2021/07/19 02:02:51;;;;;;;11.85;8.25;;;;;;;23.93;64.44;94212.84;5011991;28;20127;-71
2021/07/19 02:05:17;;;;;;;10.98;8.25;;;;;;;23.90;64.82;94208.44;4990283;28;20053;-70
2021/07/19 02:07:42;;;;;;;11.95;7.82;;;;;;;23.88;64.98;94210.22;4989725;28;20034;-70
2021/07/19 02:10:09;;;;;;;9.75;7.47;;;;;;;23.87;64.54;94214.97;4989202;28;20033;-71
2021/07/19 02:12:38;;;;;;;9.60;7.05;;;;;;;23.81;64.63;94215.59;5002902;28;20419;-71
2021/07/19 02:15:12;;;;;;;10.32;8.02;;;;;;;23.84;64.66;94220.00;4997289;28;20030;-71
2021/07/19 02:17:38;;;;;;;8.90;7.63;;;;;;;23.83;64.65;94224.72;5006641;28;20037;-70
2021/07/19 02:20:10;;;;;;;11.10;7.75;;;;;;;23.81;65.22;94226.50;5022576;28;20444;-71
2021/07/19 02:22:38;;;;;;;9.10;7.47;;;;;;;23.75;64.90;94212.28;5007281;28;20026;-70
2021/07/19 02:25:04;;;;;;;10.30;7.43;;;;;;;23.74;64.62;94211.56;5007003;28;20033;-71
2021/07/19 02:27:30;;;;;;;9.45;7.32;;;;;;;23.38;65.00;94163.56;5021932;28;20464;-70
2021/07/19 02:29:55;;;;;;;10.18;7.80;;;;;;;23.78;64.95;94211.22;5021772;28;20026;-71
2021/07/19 02:32:21;;;;;;;11.15;7.32;;;;;;;23.73;64.54;94214.81;5007303;28;20044;-70
2021/07/19 02:34:46;;;;;;;11.80;7.57;;;;;;;23.64;64.32;94201.63;4989157;28;20028;-71
2021/07/19 02:37:12;;;;;;;11.70;7.57;;;;;;;23.67;64.68;94212.19;5006744;28;20024;-70
2021/07/19 02:39:38;;;;;;;8.30;7.38;;;;;;;23.65;64.67;94216.75;4989553;28;20030;-71
2021/07/19 02:42:03;;;;;;;9.20;7.13;;;;;;;23.58;64.39;94203.72;5005844;28;20029;-70
2021/07/19 02:44:29;;;;;;;11.77;7.70;;;;;;;23.60;64.65;94220.28;4988833;28;20476;-71
2021/07/19 02:46:54;;;;;;;10.57;7.30;;;;;;;23.48;64.53;94210.88;5006741;28;20033;-70
2021/07/19 02:49:19;;;;;;;8.90;6.90;;;;;;;23.52;65.15;94224.91;4988346;28;20100;-70
2021/07/19 02:51:45;;;;;;;9.65;7.60;;;;;;;23.36;65.12;94214.38;5006810;28;20048;-69
2021/07/19 02:54:10;;;;;;;8.65;7.13;;;;;;;23.49;65.25;94228.69;4989262;28;20054;-70
2021/07/19 02:56:37;;;;;;;9.95;7.50;;;;;;;23.43;65.31;94236.25;4989732;28;20034;-70
2021/07/19 02:59:02;;;;;;;10.05;7.45;;;;;;;23.30;65.48;94222.66;5008090;28;20480;-69
2021/07/19 03:01:28;;;;;;;10.63;7.30;;;;;;;23.36;65.56;94241.63;5009780;28;20032;-69
2021/07/19 03:03:54;;;;;;;11.38;7.75;;;;;;;23.34;65.21;94233.97;4991925;28;20116;-70
2021/07/19 03:06:21;;;;;;;9.48;7.50;;;;;;;23.05;65.18;94207.84;5008301;28;20172;-70
2021/07/19 03:08:47;;;;;;;12.38;7.18;;;;;;;23.20;65.75;94231.78;4994874;28;20029;-69
2021/07/19 03:11:26;;;;;;;10.25;7.82;;;;;;;23.18;65.79;94232.31;5009057;28;20022;-70
2021/07/19 03:13:54;;;;;;;12.30;7.60;;;;;;;23.22;65.42;94249.09;5006853;28;20057;-70
2021/07/19 03:16:19;;;;;;;10.68;7.50;;;;;;;23.03;65.85;94237.59;4989026;28;20041;-70
2021/07/19 03:18:45;;;;;;;11.05;7.60;;;;;;;23.11;66.06;94254.03;5002008;28;20034;-69
2021/07/19 03:21:10;;;;;;;10.77;8.13;;;;;;;23.07;65.73;94251.63;4988612;28;20025;-70
2021/07/19 03:23:36;;;;;;;10.90;7.80;;;;;;;23.11;65.73;94265.66;4983431;28;20030;-71
2021/07/19 03:26:02;;;;;;;11.40;8.40;;;;;;;22.91;65.44;94209.09;4975581;28;20025;-70
2021/07/19 03:28:27;;;;;;;10.10;7.28;;;;;;;23.06;64.56;94214.78;4997266;28;20120;-70
2021/07/19 03:30:52;;;;;;;10.43;7.07;;;;;;;23.38;64.57;94261.66;4980229;28;20413;-71
2021/07/19 03:33:18;;;;;;;16.02;7.78;;;;;;;23.36;64.94;94253.25;4995762;28;20045;-71
2021/07/19 03:35:43;;;;;;;10.00;8.05;;;;;;;23.54;64.36;94258.56;4984904;28;20013;-70
2021/07/19 03:38:12;;;;;;;12.13;8.20;;;;;;;23.57;64.10;94259.47;4968512;28;20117;-70
2021/07/19 03:40:37;;;;;;;11.05;8.15;;;;;;;23.53;63.50;94251.66;4967432;28;20029;-70
2021/07/19 03:43:02;;;;;;;12.50;8.23;;;;;;;23.68;62.92;94262.03;4982204;28;20033;-70
2021/07/19 03:45:28;;;;;;;12.90;8.65;;;;;;;23.84;63.14;94269.84;5005081;28;20048;-70
2021/07/19 03:47:53;;;;;;;13.00;8.82;;;;;;;23.92;63.57;94271.34;4982792;28;20030;-71
2021/07/19 03:50:19;;;;;;;10.93;7.90;;;;;;;23.96;63.16;94277.22;4997930;28;20029;-70
2021/07/19 03:52:46;;;;;;;11.50;7.65;;;;;;;24.06;63.25;94275.47;5001753;28;20136;-72
2021/07/19 03:55:14;;;;;;;10.73;8.50;;;;;;;24.20;62.80;94279.63;4981790;28;20026;-71
2021/07/19 03:57:39;;;;;;;19.13;9.45;;;;;;;24.24;62.79;94273.84;4993066;28;20053;-70
2021/07/19 04:00:06;;;;;;;17.88;10.20;;;;;;;24.39;62.24;94280.19;4968369;28;20504;-70
2021/07/19 04:02:32;;;;;;;14.95;9.48;;;;;;;24.44;62.17;94287.53;4997022;28;20043;-70
2021/07/19 04:05:05;;;;;;;17.15;10.30;;;;;;;24.11;61.50;94222.81;4998564;28;20033;-70
2021/07/19 04:07:31;;;;;;;14.40;10.10;;;;;;;24.61;62.16;94285.09;4970671;28;20084;-70
2021/07/19 04:09:57;;;;;;;13.65;10.20;;;;;;;24.71;61.62;94283.34;4981303;28;20030;-70
2021/07/19 04:12:22;;;;;;;13.95;10.32;;;;;;;24.83;61.25;94285.28;4982262;28;20033;-70
2021/07/19 04:14:48;;;;;;;12.57;9.50;;;;;;;24.90;61.24;94284.56;4977260;28;20464;-70
2021/07/19 04:17:13;;;;;;;13.52;9.70;;;;;;;24.94;60.87;94285.69;4985683;28;20026;-70
2021/07/19 04:19:43;;;;;;;13.40;10.18;;;;;;;24.99;60.84;94286.84;4993022;28;20109;-70
2021/07/19 04:22:09;;;;;;;14.10;10.27;;;;;;;24.93;60.55;94273.31;5013540;28;20030;-70
2021/07/19 04:24:35;;;;;;;14.00;10.40;;;;;;;25.18;60.08;94293.53;4971914;28;20029;-70
2021/07/19 04:27:00;;;;;;;13.02;10.20;;;;;;;24.65;59.95;94209.03;4991609;28;20034;-69
2021/07/19 04:29:26;;;;;;;13.57;9.73;;;;;;;25.22;59.67;94272.06;4966040;28;20030;-70
2021/07/19 04:31:53;;;;;;;12.27;9.63;;;;;;;25.37;59.84;94277.59;4997977;28;20096;-71
2021/07/19 04:34:28;;;;;;;14.88;9.77;;;;;;;25.39;60.02;94280.50;4998000;28;20030;-69
2021/07/19 04:36:57;;;;;;;14.13;9.20;;;;;;;25.50;59.79;94288.41;4993882;28;20026;-70
2021/07/19 04:39:23;;;;;;;13.40;9.48;;;;;;;25.48;59.24;94266.34;5000418;28;20064;-70
2021/07/19 04:41:48;;;;;;;15.25;9.55;;;;;;;25.31;59.25;94253.16;4997030;28;20420;-70
2021/07/19 04:44:14;;;;;;;12.60;10.35;;;;;;;25.64;58.95;94289.75;5000199;28;20038;-71
2021/07/19 04:46:39;;;;;;;15.82;10.70;;;;;;;25.74;58.47;94287.97;4993749;28;20037;-70
2021/07/19 04:49:05;;;;;;;17.50;10.07;;;;;;;25.77;58.35;94297.81;4992342;28;20038;-71
2021/07/19 04:51:31;;;;;;;16.33;10.32;;;;;;;25.72;58.67;94296.00;5000081;28;20030;-70
2021/07/19 04:53:56;;;;;;;16.63;11.10;;;;;;;25.75;58.46;94301.09;4994245;28;20547;-69
2021/07/19 04:56:22;;;;;;;14.02;9.88;;;;;;;25.69;58.94;94297.06;4968046;28;20041;-72
2021/07/19 04:58:48;;;;;;;16.63;10.57;;;;;;;25.77;58.71;94298.59;4968144;28;20046;-68
2021/07/19 05:01:14;;;;;;;14.43;10.38;;;;;;;25.74;58.63;94304.38;5004064;28;20512;-69
2021/07/19 05:03:40;;;;;;;15.70;10.98;;;;;;;25.85;57.98;94302.06;4985835;28;20124;-69
2021/07/19 05:06:06;;;;;;;14.35;11.05;;;;;;;25.83;58.14;94299.88;4996805;28;20042;-68
2021/07/19 05:08:31;;;;;;;15.60;11.43;;;;;;;25.80;58.24;94292.75;4980653;28;20033;-68
2021/07/19 05:10:56;;;;;;;18.35;10.57;;;;;;;25.92;57.66;94304.81;4982395;28;20108;-74
2021/07/19 05:13:22;;;;;;;13.07;9.75;;;;;;;25.41;57.23;94226.03;4990711;28;20496;-71
2021/07/19 05:15:47;;;;;;;14.93;9.25;;;;;;;26.13;56.67;94308.16;4990436;28;20033;-68
2021/07/19 05:18:18;;;;;;;13.88;8.68;;;;;;;26.20;56.50;94312.91;4982376;28;20049;-70
2021/07/19 05:20:44;;;;;;;11.98;9.18;;;;;;;26.35;55.27;94308.25;4999520;28;20060;-69
2021/07/19 05:23:10;;;;;;;14.35;9.23;;;;;;;26.41;55.08;94305.31;4988756;28;20100;-69
2021/07/19 05:25:35;;;;;;;11.05;8.68;;;;;;;26.46;55.34;94307.88;4967032;28;20029;-70
2021/07/19 05:28:00;;;;;;;10.80;8.52;;;;;;;26.55;54.74;94295.66;5000392;28;20025;-70
2021/07/19 05:30:26;;;;;;;12.95;9.55;;;;;;;26.44;54.87;94282.31;4998921;28;20036;-69
2021/07/19 05:32:51;;;;;;;15.18;8.73;;;;;;;26.68;54.31;94311.91;4994433;28;20032;-69
2021/07/19 05:35:18;;;;;;;15.10;8.20;;;;;;;26.72;55.63;94312.28;4994064;28;20073;-69
2021/07/19 05:37:43;;;;;;;15.35;9.55;;;;;;;26.82;54.27;94311.19;4983518;28;20044;-69
2021/07/19 05:40:10;;;;;;;12.57;9.35;;;;;;;26.89;53.96;94305.72;4997724;28;20109;-67
2021/07/19 05:42:35;;;;;;;15.23;9.90;;;;;;;26.89;53.68;94294.75;4998757;28;20113;-68
2021/07/19 05:45:01;;;;;;;10.35;8.30;;;;;;;26.92;54.94;94299.16;4994585;28;20026;-68
2021/07/19 05:47:26;;;;;;;12.32;8.38;;;;;;;26.95;55.02;94309.00;4999170;28;20014;-69
2021/07/19 05:49:52;;;;;;;11.18;9.00;;;;;;;27.00;53.16;94305.34;4997694;28;20026;-68
2021/07/19 05:52:17;;;;;;;9.60;8.60;;;;;;;26.52;52.96;94223.53;4997875;28;20018;-68
2021/07/19 05:54:42;;;;;;;19.55;9.55;;;;;;;27.25;52.43;94314.44;4985512;28;20277;-69
2021/07/19 05:57:08;;;;;;;13.70;8.75;;;;;;;27.26;52.48;94315.91;4998868;28;20033;-68
2021/07/19 05:59:33;;;;;;;9.77;7.80;;;;;;;27.29;52.44;94309.31;5008370;28;20033;-68
2021/07/19 06:01:59;;;;;;;15.00;9.70;;;;;;;27.40;51.99;94314.41;4986465;28;20037;-68
2021/07/19 06:04:24;;;;;;;11.85;8.93;;;;;;;27.47;51.74;94316.41;4994739;28;20046;-69
2021/07/19 06:06:50;;;;;;;14.23;9.18;;;;;;;27.49;51.67;94316.59;5000542;28;20029;-68
2021/07/19 06:09:15;;;;;;;10.77;8.52;;;;;;;27.57;51.67;94317.31;4998315;28;20028;-68
2021/07/19 06:11:41;;;;;;;13.25;8.40;;;;;;;27.54;51.80;94307.47;4998792;28;20098;-68
2021/07/19 06:14:06;;;;;;;12.70;8.23;;;;;;;27.66;51.86;94319.50;5002977;28;20026;-68
2021/07/19 06:16:32;;;;;;;11.75;7.85;;;;;;;27.68;52.11;94322.41;4998621;28;20022;-69
2021/07/19 06:18:57;;;;;;;11.07;7.03;;;;;;;27.70;51.38;94325.31;4997641;28;20018;-74
2021/07/19 06:21:23;;;;;;;9.88;7.60;;;;;;;27.66;51.03;94308.50;5005335;28;20488;-75
2021/07/19 06:23:48;;;;;;;14.35;8.35;;;;;;;27.43;50.98;94280.41;5005312;28;20504;-71
2021/07/19 06:26:14;;;;;;;11.07;7.35;;;;;;;27.75;50.48;94311.41;4998196;28;20064;-71
2021/07/19 06:28:41;;;;;;;10.85;7.80;;;;;;;27.77;50.38;94304.06;4995329;28;20034;-71
2021/07/19 06:31:07;;;;;;;13.15;7.70;;;;;;;27.11;49.98;94217.25;4982496;28;20540;-71
2021/07/19 06:33:33;;;;;;;12.55;7.28;;;;;;;27.55;50.70;94281.47;4986096;28;20030;-71
2021/07/19 06:35:58;;;;;;;13.40;7.55;;;;;;;27.80;50.09;94313.94;4986255;28;20025;-72
2021/07/19 06:38:25;;;;;;;14.27;7.72;;;;;;;27.72;50.92;94312.50;4987778;28;20068;-71
2021/07/19 06:40:50;;;;;;;9.73;7.30;;;;;;;27.81;51.02;94304.41;5001367;28;20041;-71
2021/07/19 06:43:16;;;;;;;12.30;7.68;;;;;;;27.83;50.80;94301.84;4986720;28;20460;-71
2021/07/19 06:45:43;;;;;;;11.30;7.72;;;;;;;27.78;50.84;94286.31;4998821;28;20033;-71
2021/07/19 06:48:09;;;;;;;12.10;7.82;;;;;;;27.80;51.45;94296.72;4999934;28;20030;-71
2021/07/19 06:50:34;;;;;;;14.95;7.68;;;;;;;27.43;51.46;94242.72;4996850;28;20034;-71
2021/07/19 06:53:00;;;;;;;10.93;7.60;;;;;;;27.80;51.07;94297.47;4987427;28;20041;-72
2021/07/19 06:55:25;;;;;;;13.48;8.27;;;;;;;27.81;50.88;94298.91;4997686;28;20088;-72
2021/07/19 06:57:50;;;;;;;11.82;8.05;;;;;;;27.79;51.29;94290.53;4997502;28;20470;-72
2021/07/19 07:00:16;;;;;;;10.20;7.53;;;;;;;27.81;51.19;94287.94;4997622;28;20034;-71
2021/07/19 07:02:41;;;;;;;9.85;7.70;;;;;;;27.78;50.86;94294.53;4998071;28;20050;-71
2021/07/19 07:05:07;;;;;;;12.80;8.20;;;;;;;27.67;50.75;94266.81;5004044;28;20485;-71
2021/07/19 07:07:33;;;;;;;15.25;8.40;;;;;;;27.79;50.82;94287.06;5002142;28;20053;-72
2021/07/19 07:09:58;;;;;;;11.48;7.70;;;;;;;27.75;50.99;94283.94;5001765;28;20068;-71
2021/07/19 07:12:24;;;;;;;11.60;7.70;;;;;;;27.76;50.91;94288.88;4997856;28;20030;-72
2021/07/19 07:14:58;;;;;;;13.65;8.30;;;;;;;27.73;51.49;94283.03;4999745;28;20029;-74
2021/07/19 07:17:24;;;;;;;11.77;7.90;;;;;;;27.63;51.71;94282.19;5000679;28;20040;-74
2021/07/19 07:19:51;;;;;;;10.90;8.23;;;;;;;27.60;51.89;94275.06;4995644;28;20030;-75
2021/07/19 07:22:16;;;;;;;10.75;7.63;;;;;;;27.52;50.50;94272.34;5009642;28;20045;-75
2021/07/19 07:24:42;;;;;;;11.75;7.97;;;;;;;27.44;50.43;94273.63;5006949;28;20543;-74
2021/07/19 07:27:11;;;;;;;11.00;6.82;;;;;;;27.38;49.99;94262.13;5002148;28;20023;-74
2021/07/19 07:29:37;;;;;;;9.13;7.00;;;;;;;27.42;49.70;94278.94;5003239;28;20108;-74
2021/07/19 07:32:04;;;;;;;12.25;7.22;;;;;;;27.38;49.54;94273.84;4992637;28;20037;-74
2021/07/19 07:34:29;;;;;;;8.55;6.30;;;;;;;27.34;49.57;94268.00;5003910;28;20033;-74
2021/07/19 07:36:55;;;;;;;8.23;6.45;;;;;;;27.36;48.98;94267.44;5007486;28;20022;-75
2021/07/19 07:39:20;;;;;;;9.52;6.70;;;;;;;27.35;49.03;94274.19;5006694;28;20025;-75
2021/07/19 07:41:45;;;;;;;9.07;6.55;;;;;;;27.29;48.46;94265.44;4995190;28;20103;-76
2021/07/19 07:44:11;;;;;;;7.45;6.57;;;;;;;27.27;48.21;94257.03;4998807;28;20033;-75
2021/07/19 07:46:38;;;;;;;8.73;5.72;;;;;;;27.00;48.32;94217.63;5007166;28;20031;-75
2021/07/19 07:49:05;;;;;;;7.60;6.60;;;;;;;27.31;47.44;94262.88;4979266;28;20037;-75
2021/07/19 07:51:33;;;;;;;8.95;6.30;;;;;;;27.30;47.46;94262.16;4997506;28;20037;-75
2021/07/19 07:54:00;;;;;;;7.00;6.15;;;;;;;27.32;47.05;94262.34;4996360;28;20030;-75
2021/07/19 07:56:26;;;;;;;9.43;5.75;;;;;;;27.26;47.15;94261.06;5006855;28;20065;-75
2021/07/19 07:58:52;;;;;;;6.85;6.00;;;;;;;27.10;46.49;94237.72;5008927;28;20029;-75
2021/07/19 08:01:17;;;;;;;8.27;6.07;;;;;;;27.31;46.62;94266.34;4992196;28;20056;-75
2021/07/19 08:03:43;;;;;;;7.18;6.05;;;;;;;27.05;46.31;94224.94;5006924;28;20520;-75
2021/07/19 08:06:08;;;;;;;7.20;5.90;;;;;;;27.23;46.16;94261.44;4989170;28;20045;-75
2021/07/19 08:08:34;;;;;;;8.00;6.07;;;;;;;27.28;47.33;94264.00;5007106;28;20107;-75
2021/07/19 08:10:59;;;;;;;6.05;5.45;;;;;;;26.76;46.90;94197.59;4999981;28;20031;-76
2021/07/19 08:13:25;;;;;;;8.90;5.78;;;;;;;26.97;46.32;94262.59;4981078;28;20038;-75
2021/07/19 08:15:50;;;;;;;6.10;5.45;;;;;;;26.58;46.11;94258.97;4998316;28;20032;-75
2021/07/19 08:18:16;;;;;;;6.85;5.40;;;;;;;26.24;45.50;94252.34;4998995;28;20402;-75
2021/07/19 08:20:44;;;;;;;7.30;5.70;;;;;;;25.75;44.92;94207.38;4997502;28;20520;-74
2021/07/19 08:23:10;;;;;;;7.22;5.80;;;;;;;25.75;44.85;94229.28;4984685;28;20026;-73
2021/07/19 08:25:35;;;;;;;7.13;5.55;;;;;;;25.72;44.93;94224.88;5004500;28;20034;-74
2021/07/19 08:28:01;;;;;;;8.60;5.72;;;;;;;25.96;45.06;94266.16;4957298;28;20026;-73
2021/07/19 08:30:26;;;;;;;6.97;5.68;;;;;;;25.77;45.33;94254.06;4995034;28;20085;-74
2021/07/19 08:32:52;;;;;;;7.50;5.82;;;;;;;25.84;45.74;94254.84;4987104;28;20449;-74
2021/07/19 08:35:18;;;;;;;7.80;6.20;;;;;;;25.52;46.32;94212.78;5002380;28;20768;-74
2021/07/19 08:37:45;;;;;;;6.30;5.70;;;;;;;25.75;46.99;94245.69;5011274;28;20026;-74
2021/07/19 08:40:11;;;;;;;6.40;5.45;;;;;;;25.82;47.56;94246.41;4975832;28;20049;-74
2021/07/19 08:42:37;;;;;;;7.15;6.13;;;;;;;25.97;49.09;94251.94;5006260;28;20034;-74
2021/07/19 08:45:07;;;;;;;6.63;5.88;;;;;;;25.79;50.26;94214.69;4987674;28;20029;-73
2021/07/19 08:47:36;;;;;;;9.05;6.35;;;;;;;26.13;51.16;94256.16;5004895;28;20036;-73
2021/07/19 08:50:03;;;;;;;6.88;6.15;;;;;;;26.13;52.43;94247.19;4997575;28;20407;-74
2021/07/19 08:52:28;;;;;;;6.55;5.93;;;;;;;26.21;52.35;94254.16;5001233;28;20042;-74
2021/07/19 08:54:54;;;;;;;6.32;5.72;;;;;;;25.78;52.65;94189.88;4997007;28;20049;-73
2021/07/19 08:57:19;;;;;;;7.38;5.65;;;;;;;25.81;52.91;94195.00;4972546;28;20088;-73
2021/07/19 08:59:46;;;;;;;6.75;5.70;;;;;;;26.23;53.35;94246.13;4998316;28;20107;-73
2021/07/19 09:02:11;;;;;;;7.10;6.18;;;;;;;26.25;53.52;94238.13;5002298;28;20100;-70
2021/07/19 09:04:37;;;;;;;6.60;6.00;;;;;;;26.26;53.95;94234.09;4997436;28;20018;-70
2021/07/19 09:07:03;;;;;;;5.60;5.10;;;;;;;26.28;53.98;94234.31;5003157;28;20531;-72
2021/07/19 09:09:32;;;;;;;6.68;5.93;;;;;;;26.26;54.07;94231.34;5004251;28;20052;-72
2021/07/19 09:11:59;;;;;;;6.47;5.70;;;;;;;26.25;54.34;94224.44;4989061;28;20041;-72
2021/07/19 09:14:25;;;;;;;6.05;5.43;;;;;;;26.34;53.95;94223.91;4997261;28;20497;-72
2021/07/19 09:16:50;;;;;;;5.88;5.28;;;;;;;26.46;53.40;94233.22;4988055;28;20149;-72
2021/07/19 09:19:17;;;;;;;6.07;5.25;;;;;;;26.55;52.83;94227.19;5006251;28;20519;-71
2021/07/19 09:21:44;;;;;;;5.72;5.13;;;;;;;26.64;52.59;94234.84;5007348;28;20026;-73
2021/07/19 09:24:18;;;;;;;6.38;5.05;;;;;;;26.74;51.90;94230.25;5002635;28;20587;-71
2021/07/19 09:26:44;;;;;;;5.90;5.30;;;;;;;26.82;51.61;94224.22;5000754;28;20026;-71
2021/07/19 09:29:11;;;;;;;6.75;5.57;;;;;;;26.59;51.18;94189.94;5006758;28;20041;-73
2021/07/19 09:31:39;;;;;;;7.07;5.28;;;;;;;26.94;50.91;94225.31;4980435;28;20589;-72
2021/07/19 09:34:11;;;;;;;5.90;5.30;;;;;;;27.11;50.45;94225.47;5001550;28;20120;-71
2021/07/19 09:36:37;;;;;;;6.95;5.43;;;;;;;27.21;49.90;94226.34;4991894;28;20018;-71
2021/07/19 09:39:07;;;;;;;7.00;5.63;;;;;;;27.30;49.53;94234.72;4983243;28;20448;-71
2021/07/19 09:41:32;;;;;;;7.95;5.50;;;;;;;27.34;49.49;94224.13;4994127;28;20028;-69
2021/07/19 09:43:58;;;;;;;6.18;5.30;;;;;;;27.38;49.64;94229.22;4980398;28;20554;-71
2021/07/19 09:46:31;;;;;;;6.32;5.32;;;;;;;27.39;50.11;94219.72;4989088;28;20842;-72
2021/07/19 09:48:57;;;;;;;5.57;4.95;;;;;;;27.19;50.23;94187.81;5006967;28;20025;-72
2021/07/19 09:51:30;;;;;;;5.50;4.85;;;;;;;27.57;49.56;94229.53;4972147;28;20037;-72
2021/07/19 09:53:55;;;;;;;6.07;4.90;;;;;;;27.52;49.73;94216.75;4991457;28;20017;-72
2021/07/19 09:56:22;;;;;;;5.80;4.95;;;;;;;27.57;49.71;94221.31;5009439;28;20079;-72
2021/07/19 09:59:07;;;;;;;5.25;4.60;;;;;;;27.63;49.83;94227.31;5023843;28;20044;-72
2021/07/19 10:01:35;;;;;;;5.80;5.07;;;;;;;27.67;49.24;94233.13;5028902;28;20037;-72
2021/07/19 10:04:11;;;;;;;6.53;5.13;;;;;;;27.72;49.28;94229.47;5017152;28;20050;-72
2021/07/19 10:06:40;;;;;;;5.85;4.82;;;;;;;27.66;49.34;94215.22;5008661;28;20100;-71
2021/07/19 10:09:09;;;;;;;6.28;5.07;;;;;;;27.74;49.02;94228.34;5001545;28;20096;-72
2021/07/19 10:11:37;;;;;;;6.53;5.30;;;;;;;27.74;48.42;94209.16;4997171;28;20126;-71
2021/07/19 10:14:03;;;;;;;6.40;5.10;;;;;;;27.70;48.78;94199.09;4998755;28;20450;-69
2021/07/19 10:16:30;;;;;;;5.78;5.00;;;;;;;27.89;48.24;94222.78;4985448;28;20121;-73
2021/07/19 10:18:56;;;;;;;5.68;5.18;;;;;;;27.95;48.46;94220.56;4979223;28;20042;-72
2021/07/19 10:21:22;;;;;;;5.78;5.18;;;;;;;27.62;47.80;94160.00;4989240;28;20144;-76
2021/07/19 10:23:48;;;;;;;5.68;5.05;;;;;;;28.00;47.93;94211.38;5003469;28;20083;-75
2021/07/19 10:26:13;;;;;;;5.38;4.88;;;;;;;28.00;47.78;94211.38;4992625;28;20026;-74
2021/07/19 10:28:39;;;;;;;5.85;4.60;;;;;;;27.94;47.57;94202.63;5002742;28;20030;-74
2021/07/19 10:31:04;;;;;;;5.00;4.50;;;;;;;28.03;47.65;94204.75;4980557;28;20038;-72
2021/07/19 10:33:31;;;;;;;5.20;4.57;;;;;;;28.03;47.80;94204.75;5007146;28;20030;-73
2021/07/19 10:35:58;;;;;;;5.07;4.53;;;;;;;28.05;47.24;94196.69;4998576;28;20034;-72
2021/07/19 10:38:26;;;;;;;6.20;4.75;;;;;;;28.11;46.65;94194.47;4990272;28;20018;-72
2021/07/19 10:40:55;;;;;;;5.05;4.57;;;;;;;28.10;46.69;94193.03;5002899;28;20104;-72
2021/07/19 10:43:21;;;;;;;;;;;;;;;28.09;47.10;94202.53;4981577;28;20207;-71
2021/07/19 10:45:53;;;;;;;4.95;4.25;;;;;;;28.08;46.41;94192.81;4980039;28;19917;-72
2021/07/19 10:48:30;;;;;;;5.40;4.50;;;;;;;28.00;46.62;94183.19;4994748;28;20410;-72
2021/07/19 10:51:00;;;;;;;4.95;4.38;;;;;;;27.70;46.63;94144.22;4980451;28;20030;-72
2021/07/19 10:53:31;;;;;;;5.05;4.30;;;;;;;27.91;47.03;94176.28;4966944;28;20041;-72
2021/07/19 10:56:07;;;;;;;6.05;4.43;;;;;;;27.88;47.00;94176.69;4978852;28;20027;-71
2021/07/19 10:58:50;;;;;;;4.65;4.15;;;;;;;27.78;47.09;94171.06;4998330;28;20057;-71
2021/07/19 11:01:23;;;;;;;4.93;4.43;;;;;;;27.65;46.42;94158.91;5000858;28;20580;-74
2021/07/19 11:03:49;;;;;;;5.22;4.38;;;;;;;27.70;46.63;94168.91;5012277;28;20587;-75
2021/07/19 11:06:36;;;;;;;6.03;4.45;;;;;;;27.32;46.89;94138.94;5030374;28;20033;-74
2021/07/19 11:09:06;;;;;;;4.82;4.32;;;;;;;27.46;46.78;94147.66;4999902;28;20109;-74
2021/07/19 11:11:33;;;;;;;6.10;4.65;;;;;;;27.49;47.06;94157.50;5025939;28;20034;-74
2021/07/19 11:14:03;;;;;;;5.00;4.50;;;;;;;27.43;46.95;94154.25;5023276;28;20089;-72
2021/07/19 11:16:42;;;;;;;4.68;4.20;;;;;;;27.04;47.36;94102.88;5011165;28;20120;-72
2021/07/19 11:19:08;;;;;;;5.05;4.30;;;;;;;27.08;46.91;94119.66;4992101;28;20011;-72
2021/07/19 11:21:33;;;;;;;5.22;4.72;;;;;;;27.31;47.13;94169.66;4992720;28;20460;-73
2021/07/19 11:24:17;;;;;;;5.97;5.00;;;;;;;27.16;47.21;94153.28;4972706;28;20092;-72
2021/07/19 11:26:53;;;;;;;4.75;4.32;;;;;;;27.25;46.96;94161.63;4992719;28;20493;-72
2021/07/19 11:29:29;;;;;;;5.07;4.53;;;;;;;26.88;47.35;94106.94;5006751;28;20034;-73